sensor_id;sensor_type;location;lat;lon;timestamp;temperature;humidity
20750;DHT22;10535;50.664;4.564;2023-04-06T00:02:08;4.80;99.90
20750;DHT22;10535;50.664;4.564;2023-04-06T00:04:34;4.90;99.90
20750;DHT22;10535;50.664;4.564;2023-04-06T00:06:59;4.90;99.90
20750;DHT22;10535;50.664;4.564;2023-04-06T00:09:25;5.00;99.90
20750;DHT22;10535;50.664;4.564;2023-04-06T00:11:51;5.00;99.90
20750;DHT22;10535;50.664;4.564;2023-04-06T00:14:16;5.20;99.90
20750;DHT22;10535;50.664;4.564;2023-04-06T00:16:42;5.30;99.90
20750;DHT22;10535;50.664;4.564;2023-04-06T00:19:08;5.30;99.90
20750;DHT22;10535;50.664;4.564;2023-04-06T00:21:34;5.20;99.90
20750;DHT22;10535;50.664;4.564;2023-04-06T00:23:59;5.10;99.90
20750;DHT22;10535;50.664;4.564;2023-04-06T00:26:25;5.10;99.90
20750;DHT22;10535;50.664;4.564;2023-04-06T00:28:51;5.10;99.90
20750;DHT22;10535;50.664;4.564;2023-04-06T00:31:17;5.20;99.90
20750;DHT22;10535;50.664;4.564;2023-04-06T00:33:43;5.10;99.90
20750;DHT22;10535;50.664;4.564;2023-04-06T00:36:09;5.10;99.90
20750;DHT22;10535;50.664;4.564;2023-04-06T00:38:34;5.20;99.90
20750;DHT22;10535;50.664;4.564;2023-04-06T00:41:00;5.10;99.90
20750;DHT22;10535;50.664;4.564;2023-04-06T00:43:26;5.20;99.90
20750;DHT22;10535;50.664;4.564;2023-04-06T00:45:52;5.30;99.90
20750;DHT22;10535;50.664;4.564;2023-04-06T00:48:17;5.30;99.90
20750;DHT22;10535;50.664;4.564;2023-04-06T00:50:43;5.30;99.90
20750;DHT22;10535;50.664;4.564;2023-04-06T00:53:09;5.30;99.90
20750;DHT22;10535;50.664;4.564;2023-04-06T00:55:35;5.40;99.90
20750;DHT22;10535;50.664;4.564;2023-04-06T00:58:01;5.40;99.90
20750;DHT22;10535;50.664;4.564;2023-04-06T01:00:27;5.30;99.90
20750;DHT22;10535;50.664;4.564;2023-04-06T01:02:53;5.20;99.90
20750;DHT22;10535;50.664;4.564;2023-04-06T01:05:19;5.20;99.90
20750;DHT22;10535;50.664;4.564;2023-04-06T01:07:45;5.30;99.90
20750;DHT22;10535;50.664;4.564;2023-04-06T01:10:11;5.30;99.90
20750;DHT22;10535;50.664;4.564;2023-04-06T01:12:47;5.30;99.90
20750;DHT22;10535;50.664;4.564;2023-04-06T01:15:13;5.30;99.90
20750;DHT22;10535;50.664;4.564;2023-04-06T01:17:40;5.40;99.90
20750;DHT22;10535;50.664;4.564;2023-04-06T01:20:07;5.50;99.90
20750;DHT22;10535;50.664;4.564;2023-04-06T01:22:32;5.50;99.90
20750;DHT22;10535;50.664;4.564;2023-04-06T01:24:58;5.60;99.90
20750;DHT22;10535;50.664;4.564;2023-04-06T01:27:24;5.60;99.90
20750;DHT22;10535;50.664;4.564;2023-04-06T01:29:51;5.60;99.90
20750;DHT22;10535;50.664;4.564;2023-04-06T01:32:17;5.60;99.90
20750;DHT22;10535;50.664;4.564;2023-04-06T01:34:43;5.70;99.90
20750;DHT22;10535;50.664;4.564;2023-04-06T01:37:08;5.80;99.90
20750;DHT22;10535;50.664;4.564;2023-04-06T01:39:34;5.90;99.90
20750;DHT22;10535;50.664;4.564;2023-04-06T01:42:00;5.70;99.90
20750;DHT22;10535;50.664;4.564;2023-04-06T01:44:26;5.60;99.90
20750;DHT22;10535;50.664;4.564;2023-04-06T01:46:52;5.60;99.90
20750;DHT22;10535;50.664;4.564;2023-04-06T01:49:17;5.60;99.90
20750;DHT22;10535;50.664;4.564;2023-04-06T01:51:43;5.60;99.90
20750;DHT22;10535;50.664;4.564;2023-04-06T01:54:09;5.60;99.90
20750;DHT22;10535;50.664;4.564;2023-04-06T01:56:34;5.70;99.90
20750;DHT22;10535;50.664;4.564;2023-04-06T01:59:00;5.90;99.90
20750;DHT22;10535;50.664;4.564;2023-04-06T02:01:26;6.00;99.90
20750;DHT22;10535;50.664;4.564;2023-04-06T02:03:52;5.90;99.90
20750;DHT22;10535;50.664;4.564;2023-04-06T02:06:17;5.80;99.90
20750;DHT22;10535;50.664;4.564;2023-04-06T02:08:43;5.70;99.90
20750;DHT22;10535;50.664;4.564;2023-04-06T02:11:09;5.70;99.90
20750;DHT22;10535;50.664;4.564;2023-04-06T02:13:34;5.60;99.90
20750;DHT22;10535;50.664;4.564;2023-04-06T02:16:00;5.60;99.90
20750;DHT22;10535;50.664;4.564;2023-04-06T02:18:28;5.40;99.90
20750;DHT22;10535;50.664;4.564;2023-04-06T02:20:54;5.40;99.90
20750;DHT22;10535;50.664;4.564;2023-04-06T02:23:19;5.40;99.90
20750;DHT22;10535;50.664;4.564;2023-04-06T02:25:45;5.30;99.90
20750;DHT22;10535;50.664;4.564;2023-04-06T02:28:11;5.30;99.90
20750;DHT22;10535;50.664;4.564;2023-04-06T02:30:36;5.30;99.90
20750;DHT22;10535;50.664;4.564;2023-04-06T02:33:02;5.40;99.90
20750;DHT22;10535;50.664;4.564;2023-04-06T02:35:29;5.40;99.90
20750;DHT22;10535;50.664;4.564;2023-04-06T02:37:55;5.40;99.90
20750;DHT22;10535;50.664;4.564;2023-04-06T02:40:21;5.30;99.90
20750;DHT22;10535;50.664;4.564;2023-04-06T02:42:46;5.40;99.90
20750;DHT22;10535;50.664;4.564;2023-04-06T02:45:12;5.40;99.90
20750;DHT22;10535;50.664;4.564;2023-04-06T02:47:37;5.50;99.90
20750;DHT22;10535;50.664;4.564;2023-04-06T02:50:04;5.50;99.90
20750;DHT22;10535;50.664;4.564;2023-04-06T02:52:29;5.50;99.90
20750;DHT22;10535;50.664;4.564;2023-04-06T02:54:55;5.40;99.90
20750;DHT22;10535;50.664;4.564;2023-04-06T02:57:21;5.40;99.90
20750;DHT22;10535;50.664;4.564;2023-04-06T02:59:46;5.50;99.90
20750;DHT22;10535;50.664;4.564;2023-04-06T03:02:12;5.40;99.90
20750;DHT22;10535;50.664;4.564;2023-04-06T03:04:38;5.30;99.90
20750;DHT22;10535;50.664;4.564;2023-04-06T03:07:03;5.20;99.90
20750;DHT22;10535;50.664;4.564;2023-04-06T03:09:29;5.20;99.90
20750;DHT22;10535;50.664;4.564;2023-04-06T03:11:54;5.20;99.90
20750;DHT22;10535;50.664;4.564;2023-04-06T03:14:20;5.10;99.90
20750;DHT22;10535;50.664;4.564;2023-04-06T03:16:48;5.10;99.90
20750;DHT22;10535;50.664;4.564;2023-04-06T03:19:14;5.20;99.90
20750;DHT22;10535;50.664;4.564;2023-04-06T03:21:40;5.10;99.90
20750;DHT22;10535;50.664;4.564;2023-04-06T03:24:06;5.10;99.90
20750;DHT22;10535;50.664;4.564;2023-04-06T03:26:32;5.00;99.90
20750;DHT22;10535;50.664;4.564;2023-04-06T03:28:58;5.00;99.90
20750;DHT22;10535;50.664;4.564;2023-04-06T03:31:24;5.00;99.90
20750;DHT22;10535;50.664;4.564;2023-04-06T03:33:49;5.00;99.90
20750;DHT22;10535;50.664;4.564;2023-04-06T03:36:15;4.90;99.90
20750;DHT22;10535;50.664;4.564;2023-04-06T03:38:41;4.90;99.90
20750;DHT22;10535;50.664;4.564;2023-04-06T03:41:06;4.80;99.90
20750;DHT22;10535;50.664;4.564;2023-04-06T03:43:32;4.80;99.90
20750;DHT22;10535;50.664;4.564;2023-04-06T03:45:58;4.80;99.90
20750;DHT22;10535;50.664;4.564;2023-04-06T03:48:23;4.80;99.90
20750;DHT22;10535;50.664;4.564;2023-04-06T03:50:49;4.80;99.90
20750;DHT22;10535;50.664;4.564;2023-04-06T03:53:15;4.80;99.90
20750;DHT22;10535;50.664;4.564;2023-04-06T03:55:40;4.80;99.90
20750;DHT22;10535;50.664;4.564;2023-04-06T03:58:06;4.80;99.90
20750;DHT22;10535;50.664;4.564;2023-04-06T04:00:32;4.90;99.90
20750;DHT22;10535;50.664;4.564;2023-04-06T04:02:58;4.80;99.90
20750;DHT22;10535;50.664;4.564;2023-04-06T04:05:24;4.90;99.90
20750;DHT22;10535;50.664;4.564;2023-04-06T04:07:51;5.00;99.90
20750;DHT22;10535;50.664;4.564;2023-04-06T04:10:17;5.00;99.90
20750;DHT22;10535;50.664;4.564;2023-04-06T04:12:43;4.90;99.90
20750;DHT22;10535;50.664;4.564;2023-04-06T04:15:08;5.00;99.90
20750;DHT22;10535;50.664;4.564;2023-04-06T04:17:34;5.10;99.90
20750;DHT22;10535;50.664;4.564;2023-04-06T04:20:00;5.30;99.90
20750;DHT22;10535;50.664;4.564;2023-04-06T04:22:26;5.30;99.90
20750;DHT22;10535;50.664;4.564;2023-04-06T04:24:53;5.30;99.90
20750;DHT22;10535;50.664;4.564;2023-04-06T04:27:19;5.20;99.90
20750;DHT22;10535;50.664;4.564;2023-04-06T04:29:44;5.20;99.90
20750;DHT22;10535;50.664;4.564;2023-04-06T04:32:10;5.10;99.90
20750;DHT22;10535;50.664;4.564;2023-04-06T04:34:36;5.00;99.90
20750;DHT22;10535;50.664;4.564;2023-04-06T04:37:05;5.00;99.90
20750;DHT22;10535;50.664;4.564;2023-04-06T04:39:31;5.00;99.90
20750;DHT22;10535;50.664;4.564;2023-04-06T04:41:57;5.00;99.90
20750;DHT22;10535;50.664;4.564;2023-04-06T04:44:22;5.00;99.90
20750;DHT22;10535;50.664;4.564;2023-04-06T04:46:48;5.10;99.90
20750;DHT22;10535;50.664;4.564;2023-04-06T04:49:14;5.10;99.90
20750;DHT22;10535;50.664;4.564;2023-04-06T04:51:39;5.30;99.90
20750;DHT22;10535;50.664;4.564;2023-04-06T04:54:05;5.40;99.90
20750;DHT22;10535;50.664;4.564;2023-04-06T04:56:31;5.60;99.90
20750;DHT22;10535;50.664;4.564;2023-04-06T04:58:56;5.50;99.90
20750;DHT22;10535;50.664;4.564;2023-04-06T05:01:22;5.50;99.90
20750;DHT22;10535;50.664;4.564;2023-04-06T05:03:48;5.60;99.90
20750;DHT22;10535;50.664;4.564;2023-04-06T05:06:13;5.60;99.90
20750;DHT22;10535;50.664;4.564;2023-04-06T05:08:39;5.80;99.90
20750;DHT22;10535;50.664;4.564;2023-04-06T05:11:05;5.90;99.90
20750;DHT22;10535;50.664;4.564;2023-04-06T05:13:31;5.90;99.90
20750;DHT22;10535;50.664;4.564;2023-04-06T05:15:57;6.00;99.90
20750;DHT22;10535;50.664;4.564;2023-04-06T05:18:22;5.80;99.90
20750;DHT22;10535;50.664;4.564;2023-04-06T05:20:48;5.80;99.90
20750;DHT22;10535;50.664;4.564;2023-04-06T05:23:15;5.90;99.90
20750;DHT22;10535;50.664;4.564;2023-04-06T05:25:40;5.80;99.90
20750;DHT22;10535;50.664;4.564;2023-04-06T05:28:06;5.70;99.90
20750;DHT22;10535;50.664;4.564;2023-04-06T05:30:32;5.70;99.90
20750;DHT22;10535;50.664;4.564;2023-04-06T05:32:58;5.90;99.90
20750;DHT22;10535;50.664;4.564;2023-04-06T05:35:24;5.90;99.90
20750;DHT22;10535;50.664;4.564;2023-04-06T05:37:50;6.10;99.90
20750;DHT22;10535;50.664;4.564;2023-04-06T05:40:16;6.30;99.90
20750;DHT22;10535;50.664;4.564;2023-04-06T05:42:42;6.30;99.90
20750;DHT22;10535;50.664;4.564;2023-04-06T05:45:09;6.20;99.90
20750;DHT22;10535;50.664;4.564;2023-04-06T05:47:36;6.10;99.90
20750;DHT22;10535;50.664;4.564;2023-04-06T05:50:02;6.10;99.90
20750;DHT22;10535;50.664;4.564;2023-04-06T05:52:28;6.10;99.90
20750;DHT22;10535;50.664;4.564;2023-04-06T05:54:54;6.30;99.90
20750;DHT22;10535;50.664;4.564;2023-04-06T05:57:19;6.40;99.90
20750;DHT22;10535;50.664;4.564;2023-04-06T05:59:45;6.50;99.90
20750;DHT22;10535;50.664;4.564;2023-04-06T06:02:11;6.60;99.90
20750;DHT22;10535;50.664;4.564;2023-04-06T06:04:37;6.70;99.90
20750;DHT22;10535;50.664;4.564;2023-04-06T06:07:02;6.90;99.90
20750;DHT22;10535;50.664;4.564;2023-04-06T06:09:28;7.00;99.90
20750;DHT22;10535;50.664;4.564;2023-04-06T06:11:54;6.90;99.90
20750;DHT22;10535;50.664;4.564;2023-04-06T06:14:20;7.20;99.90
20750;DHT22;10535;50.664;4.564;2023-04-06T06:16:47;7.10;99.90
20750;DHT22;10535;50.664;4.564;2023-04-06T06:19:13;7.20;99.90
20750;DHT22;10535;50.664;4.564;2023-04-06T06:21:38;7.20;99.90
20750;DHT22;10535;50.664;4.564;2023-04-06T06:24:04;7.20;99.90
20750;DHT22;10535;50.664;4.564;2023-04-06T06:26:30;7.40;99.90
20750;DHT22;10535;50.664;4.564;2023-04-06T06:28:56;7.40;99.90
20750;DHT22;10535;50.664;4.564;2023-04-06T06:31:22;7.50;99.90
20750;DHT22;10535;50.664;4.564;2023-04-06T06:33:50;7.40;99.90
20750;DHT22;10535;50.664;4.564;2023-04-06T06:36:19;7.60;99.90
20750;DHT22;10535;50.664;4.564;2023-04-06T06:38:45;7.80;99.90
20750;DHT22;10535;50.664;4.564;2023-04-06T06:41:11;7.80;99.90
20750;DHT22;10535;50.664;4.564;2023-04-06T06:43:37;7.60;99.90
20750;DHT22;10535;50.664;4.564;2023-04-06T06:46:03;7.60;99.90
20750;DHT22;10535;50.664;4.564;2023-04-06T06:48:30;7.80;99.90
20750;DHT22;10535;50.664;4.564;2023-04-06T06:50:56;7.90;99.90
20750;DHT22;10535;50.664;4.564;2023-04-06T06:53:23;7.90;99.90
20750;DHT22;10535;50.664;4.564;2023-04-06T06:55:49;7.80;99.90
20750;DHT22;10535;50.664;4.564;2023-04-06T06:58:18;8.00;99.90
20750;DHT22;10535;50.664;4.564;2023-04-06T07:00:44;8.20;99.90
20750;DHT22;10535;50.664;4.564;2023-04-06T07:03:10;8.30;99.90
20750;DHT22;10535;50.664;4.564;2023-04-06T07:05:35;8.20;99.90
20750;DHT22;10535;50.664;4.564;2023-04-06T07:08:01;8.20;99.90
20750;DHT22;10535;50.664;4.564;2023-04-06T07:10:27;8.30;99.90
20750;DHT22;10535;50.664;4.564;2023-04-06T07:12:53;8.40;99.90
20750;DHT22;10535;50.664;4.564;2023-04-06T07:15:18;8.50;99.90
20750;DHT22;10535;50.664;4.564;2023-04-06T07:17:44;8.40;99.90
20750;DHT22;10535;50.664;4.564;2023-04-06T07:20:11;8.40;99.90
20750;DHT22;10535;50.664;4.564;2023-04-06T07:22:38;8.50;99.90
20750;DHT22;10535;50.664;4.564;2023-04-06T07:25:04;8.70;99.90
20750;DHT22;10535;50.664;4.564;2023-04-06T07:27:30;8.80;99.90
20750;DHT22;10535;50.664;4.564;2023-04-06T07:29:56;8.80;99.90
20750;DHT22;10535;50.664;4.564;2023-04-06T07:32:21;8.90;99.90
20750;DHT22;10535;50.664;4.564;2023-04-06T07:34:47;9.00;99.90
20750;DHT22;10535;50.664;4.564;2023-04-06T07:37:13;9.10;99.90
20750;DHT22;10535;50.664;4.564;2023-04-06T07:39:38;9.20;99.90
20750;DHT22;10535;50.664;4.564;2023-04-06T07:42:04;9.30;99.90
20750;DHT22;10535;50.664;4.564;2023-04-06T07:44:30;9.30;99.90
20750;DHT22;10535;50.664;4.564;2023-04-06T07:46:56;9.60;99.90
20750;DHT22;10535;50.664;4.564;2023-04-06T07:49:22;9.80;99.90
20750;DHT22;10535;50.664;4.564;2023-04-06T07:51:48;9.90;99.90
20750;DHT22;10535;50.664;4.564;2023-04-06T07:54:14;9.80;99.90
20750;DHT22;10535;50.664;4.564;2023-04-06T07:56:39;9.80;99.90
20750;DHT22;10535;50.664;4.564;2023-04-06T07:59:05;9.60;99.90
20750;DHT22;10535;50.664;4.564;2023-04-06T08:01:31;9.70;99.90
20750;DHT22;10535;50.664;4.564;2023-04-06T08:03:57;9.90;99.90
20750;DHT22;10535;50.664;4.564;2023-04-06T08:06:23;9.80;99.90
20750;DHT22;10535;50.664;4.564;2023-04-06T08:08:48;9.60;99.90
20750;DHT22;10535;50.664;4.564;2023-04-06T08:11:14;9.60;99.90
20750;DHT22;10535;50.664;4.564;2023-04-06T08:13:40;9.60;99.90
20750;DHT22;10535;50.664;4.564;2023-04-06T08:16:06;9.40;99.90
20750;DHT22;10535;50.664;4.564;2023-04-06T08:18:31;9.50;99.90
20750;DHT22;10535;50.664;4.564;2023-04-06T08:20:57;9.50;99.90
20750;DHT22;10535;50.664;4.564;2023-04-06T08:23:23;9.70;99.90
20750;DHT22;10535;50.664;4.564;2023-04-06T08:25:48;10.00;99.90
20750;DHT22;10535;50.664;4.564;2023-04-06T08:28:14;10.00;99.90
20750;DHT22;10535;50.664;4.564;2023-04-06T08:30:41;10.00;99.90
20750;DHT22;10535;50.664;4.564;2023-04-06T08:33:07;10.30;99.90
20750;DHT22;10535;50.664;4.564;2023-04-06T08:35:33;10.20;99.90
20750;DHT22;10535;50.664;4.564;2023-04-06T08:37:59;10.50;99.90
20750;DHT22;10535;50.664;4.564;2023-04-06T08:40:25;10.70;99.90
20750;DHT22;10535;50.664;4.564;2023-04-06T08:42:54;10.70;99.90
20750;DHT22;10535;50.664;4.564;2023-04-06T08:45:21;10.80;99.90
20750;DHT22;10535;50.664;4.564;2023-04-06T08:47:49;10.80;99.90
20750;DHT22;10535;50.664;4.564;2023-04-06T08:50:16;10.60;99.90
20750;DHT22;10535;50.664;4.564;2023-04-06T08:52:44;10.40;99.90
20750;DHT22;10535;50.664;4.564;2023-04-06T08:55:11;10.30;99.90
20750;DHT22;10535;50.664;4.564;2023-04-06T08:57:38;10.50;99.90
20750;DHT22;10535;50.664;4.564;2023-04-06T09:00:05;10.60;99.90
20750;DHT22;10535;50.664;4.564;2023-04-06T09:02:32;10.70;99.90
20750;DHT22;10535;50.664;4.564;2023-04-06T09:04:58;10.60;99.90
20750;DHT22;10535;50.664;4.564;2023-04-06T09:07:24;10.60;99.90
20750;DHT22;10535;50.664;4.564;2023-04-06T09:09:50;10.80;99.90
20750;DHT22;10535;50.664;4.564;2023-04-06T09:12:37;10.90;99.90
20750;DHT22;10535;50.664;4.564;2023-04-06T09:15:03;10.70;99.90
20750;DHT22;10535;50.664;4.564;2023-04-06T09:17:32;10.90;99.90
20750;DHT22;10535;50.664;4.564;2023-04-06T09:20:02;11.00;99.90
20750;DHT22;10535;50.664;4.564;2023-04-06T09:22:36;11.00;99.90
20750;DHT22;10535;50.664;4.564;2023-04-06T09:25:02;11.10;99.90
20750;DHT22;10535;50.664;4.564;2023-04-06T09:27:35;11.30;99.90
20750;DHT22;10535;50.664;4.564;2023-04-06T09:30:10;11.30;99.90
20750;DHT22;10535;50.664;4.564;2023-04-06T09:32:50;11.20;99.90
20750;DHT22;10535;50.664;4.564;2023-04-06T09:35:16;11.40;99.90
20750;DHT22;10535;50.664;4.564;2023-04-06T09:37:46;11.20;99.90
20750;DHT22;10535;50.664;4.564;2023-04-06T09:40:13;11.30;99.90
20750;DHT22;10535;50.664;4.564;2023-04-06T09:42:41;11.00;99.90
20750;DHT22;10535;50.664;4.564;2023-04-06T09:45:09;10.90;99.90
20750;DHT22;10535;50.664;4.564;2023-04-06T09:47:36;11.00;99.90
20750;DHT22;10535;50.664;4.564;2023-04-06T09:50:03;10.90;99.90
20750;DHT22;10535;50.664;4.564;2023-04-06T09:52:48;10.60;99.90
20750;DHT22;10535;50.664;4.564;2023-04-06T09:55:23;10.40;99.90
20750;DHT22;10535;50.664;4.564;2023-04-06T10:00:21;10.20;99.90
20750;DHT22;10535;50.664;4.564;2023-04-06T10:03:20;10.20;99.90
20750;DHT22;10535;50.664;4.564;2023-04-06T10:06:05;10.50;99.90
20750;DHT22;10535;50.664;4.564;2023-04-06T10:08:33;10.40;99.90
20750;DHT22;10535;50.664;4.564;2023-04-06T10:11:02;10.20;99.90
20750;DHT22;10535;50.664;4.564;2023-04-06T10:16:01;9.90;99.90
20750;DHT22;10535;50.664;4.564;2023-04-06T10:18:47;9.90;99.90
20750;DHT22;10535;50.664;4.564;2023-04-06T10:21:28;10.10;99.90
20750;DHT22;10535;50.664;4.564;2023-04-06T10:24:06;10.20;99.90
20750;DHT22;10535;50.664;4.564;2023-04-06T10:27:09;10.00;99.90
20750;DHT22;10535;50.664;4.564;2023-04-06T10:30:05;10.10;99.90
20750;DHT22;10535;50.664;4.564;2023-04-06T10:32:54;10.30;99.90
20750;DHT22;10535;50.664;4.564;2023-04-06T10:35:20;10.20;99.90
20750;DHT22;10535;50.664;4.564;2023-04-06T10:38:08;10.20;99.90
20750;DHT22;10535;50.664;4.564;2023-04-06T10:40:41;10.30;99.90
20750;DHT22;10535;50.664;4.564;2023-04-06T10:43:20;10.20;99.90
20750;DHT22;10535;50.664;4.564;2023-04-06T10:45:56;10.00;99.90
20750;DHT22;10535;50.664;4.564;2023-04-06T10:48:25;10.10;99.90
20750;DHT22;10535;50.664;4.564;2023-04-06T10:51:01;10.10;99.90
20750;DHT22;10535;50.664;4.564;2023-04-06T10:53:27;10.20;99.90
20750;DHT22;10535;50.664;4.564;2023-04-06T10:55:57;10.30;99.90
20750;DHT22;10535;50.664;4.564;2023-04-06T10:58:27;10.00;99.90
20750;DHT22;10535;50.664;4.564;2023-04-06T11:00:54;10.10;99.90
20750;DHT22;10535;50.664;4.564;2023-04-06T11:03:25;10.20;99.90
20750;DHT22;10535;50.664;4.564;2023-04-06T11:05:53;10.40;99.90
20750;DHT22;10535;50.664;4.564;2023-04-06T11:08:26;10.50;99.90
20750;DHT22;10535;50.664;4.564;2023-04-06T11:11:07;10.30;99.90
20750;DHT22;10535;50.664;4.564;2023-04-06T11:13:54;10.00;99.90
20750;DHT22;10535;50.664;4.564;2023-04-06T11:16:27;9.90;99.90
20750;DHT22;10535;50.664;4.564;2023-04-06T11:19:01;10.20;99.90
20750;DHT22;10535;50.664;4.564;2023-04-06T11:21:47;10.10;99.90
20750;DHT22;10535;50.664;4.564;2023-04-06T11:24:24;10.00;99.90
20750;DHT22;10535;50.664;4.564;2023-04-06T11:26:57;10.10;99.90
20750;DHT22;10535;50.664;4.564;2023-04-06T11:29:33;10.00;99.90
20750;DHT22;10535;50.664;4.564;2023-04-06T11:32:21;9.80;99.90
20750;DHT22;10535;50.664;4.564;2023-04-06T11:34:52;9.90;99.90
20750;DHT22;10535;50.664;4.564;2023-04-06T11:37:20;9.80;99.90
20750;DHT22;10535;50.664;4.564;2023-04-06T11:45:42;9.80;99.90
20750;DHT22;10535;50.664;4.564;2023-04-06T11:48:43;9.90;99.90
20750;DHT22;10535;50.664;4.564;2023-04-06T11:51:38;9.80;99.90
20750;DHT22;10535;50.664;4.564;2023-04-06T11:54:05;9.80;99.90
20750;DHT22;10535;50.664;4.564;2023-04-06T11:56:31;9.90;99.90
20750;DHT22;10535;50.664;4.564;2023-04-06T11:59:00;9.90;99.90
20750;DHT22;10535;50.664;4.564;2023-04-06T12:01:26;9.80;99.90
20750;DHT22;10535;50.664;4.564;2023-04-06T12:03:55;10.00;99.90
20750;DHT22;10535;50.664;4.564;2023-04-06T12:06:20;10.00;99.90
20750;DHT22;10535;50.664;4.564;2023-04-06T12:08:46;10.10;99.90
20750;DHT22;10535;50.664;4.564;2023-04-06T12:11:13;10.10;99.90
20750;DHT22;10535;50.664;4.564;2023-04-06T12:13:41;10.10;99.90
20750;DHT22;10535;50.664;4.564;2023-04-06T12:16:08;10.00;99.90
20750;DHT22;10535;50.664;4.564;2023-04-06T12:18:35;10.00;99.90
20750;DHT22;10535;50.664;4.564;2023-04-06T12:21:00;9.90;99.90
20750;DHT22;10535;50.664;4.564;2023-04-06T12:23:26;10.00;99.90
20750;DHT22;10535;50.664;4.564;2023-04-06T12:25:52;10.00;99.90
20750;DHT22;10535;50.664;4.564;2023-04-06T12:28:22;10.20;99.90
20750;DHT22;10535;50.664;4.564;2023-04-06T12:30:52;10.10;99.90
20750;DHT22;10535;50.664;4.564;2023-04-06T12:33:20;10.20;99.90
20750;DHT22;10535;50.664;4.564;2023-04-06T12:35:46;10.40;99.90
20750;DHT22;10535;50.664;4.564;2023-04-06T12:38:12;10.40;99.90
20750;DHT22;10535;50.664;4.564;2023-04-06T12:40:38;10.50;99.90
20750;DHT22;10535;50.664;4.564;2023-04-06T12:43:05;10.70;99.90
20750;DHT22;10535;50.664;4.564;2023-04-06T12:45:34;10.70;99.90
20750;DHT22;10535;50.664;4.564;2023-04-06T12:48:00;10.80;99.90
20750;DHT22;10535;50.664;4.564;2023-04-06T12:50:25;10.80;99.90
20750;DHT22;10535;50.664;4.564;2023-04-06T12:52:51;10.80;99.90
20750;DHT22;10535;50.664;4.564;2023-04-06T12:55:17;10.70;99.90
20750;DHT22;10535;50.664;4.564;2023-04-06T12:57:46;10.70;99.90
20750;DHT22;10535;50.664;4.564;2023-04-06T13:00:12;10.70;99.90
20750;DHT22;10535;50.664;4.564;2023-04-06T13:02:38;10.60;99.90
20750;DHT22;10535;50.664;4.564;2023-04-06T13:05:05;10.60;99.90
20750;DHT22;10535;50.664;4.564;2023-04-06T13:07:31;10.50;99.90
20750;DHT22;10535;50.664;4.564;2023-04-06T13:09:57;10.30;99.90
20750;DHT22;10535;50.664;4.564;2023-04-06T13:12:22;10.20;99.90
20750;DHT22;10535;50.664;4.564;2023-04-06T13:14:48;10.00;99.90
20750;DHT22;10535;50.664;4.564;2023-04-06T13:17:20;9.90;99.90
20750;DHT22;10535;50.664;4.564;2023-04-06T13:19:49;9.90;99.90
20750;DHT22;10535;50.664;4.564;2023-04-06T13:22:15;9.90;99.90
20750;DHT22;10535;50.664;4.564;2023-04-06T13:24:50;10.00;99.90
20750;DHT22;10535;50.664;4.564;2023-04-06T13:27:16;10.00;99.90
20750;DHT22;10535;50.664;4.564;2023-04-06T13:29:45;9.90;99.90
20750;DHT22;10535;50.664;4.564;2023-04-06T13:32:15;9.90;99.90
20750;DHT22;10535;50.664;4.564;2023-04-06T13:34:41;9.70;99.90
20750;DHT22;10535;50.664;4.564;2023-04-06T13:37:15;9.80;99.90
20750;DHT22;10535;50.664;4.564;2023-04-06T13:39:45;9.90;99.90
20750;DHT22;10535;50.664;4.564;2023-04-06T13:42:11;10.00;99.90
20750;DHT22;10535;50.664;4.564;2023-04-06T13:44:39;10.10;99.90
20750;DHT22;10535;50.664;4.564;2023-04-06T13:47:05;10.10;99.90
20750;DHT22;10535;50.664;4.564;2023-04-06T13:49:31;10.20;99.90
20750;DHT22;10535;50.664;4.564;2023-04-06T13:51:58;10.30;99.90
20750;DHT22;10535;50.664;4.564;2023-04-06T13:54:23;10.40;99.90
20750;DHT22;10535;50.664;4.564;2023-04-06T13:56:51;10.30;99.90
20750;DHT22;10535;50.664;4.564;2023-04-06T13:59:17;10.60;99.90
20750;DHT22;10535;50.664;4.564;2023-04-06T14:01:47;10.50;99.90
20750;DHT22;10535;50.664;4.564;2023-04-06T14:04:13;10.50;99.90
20750;DHT22;10535;50.664;4.564;2023-04-06T14:06:38;10.60;99.90
20750;DHT22;10535;50.664;4.564;2023-04-06T14:09:04;10.70;99.90
20750;DHT22;10535;50.664;4.564;2023-04-06T14:11:30;10.70;99.90
20750;DHT22;10535;50.664;4.564;2023-04-06T14:13:59;10.70;99.90
20750;DHT22;10535;50.664;4.564;2023-04-06T14:16:25;10.70;99.90
20750;DHT22;10535;50.664;4.564;2023-04-06T14:18:50;10.70;99.90
20750;DHT22;10535;50.664;4.564;2023-04-06T14:21:17;10.80;99.90
20750;DHT22;10535;50.664;4.564;2023-04-06T14:23:45;10.90;99.90
20750;DHT22;10535;50.664;4.564;2023-04-06T14:26:11;10.90;99.90
20750;DHT22;10535;50.664;4.564;2023-04-06T14:28:37;10.70;99.90
20750;DHT22;10535;50.664;4.564;2023-04-06T14:31:12;10.60;99.90
20750;DHT22;10535;50.664;4.564;2023-04-06T14:33:38;10.40;99.90
20750;DHT22;10535;50.664;4.564;2023-04-06T14:36:06;10.30;99.90
20750;DHT22;10535;50.664;4.564;2023-04-06T14:38:32;10.30;99.90
20750;DHT22;10535;50.664;4.564;2023-04-06T14:41:02;10.30;99.90
20750;DHT22;10535;50.664;4.564;2023-04-06T14:43:28;10.20;99.90
20750;DHT22;10535;50.664;4.564;2023-04-06T14:45:53;10.30;99.90
20750;DHT22;10535;50.664;4.564;2023-04-06T14:48:21;10.40;99.90
20750;DHT22;10535;50.664;4.564;2023-04-06T14:50:54;10.50;99.90
20750;DHT22;10535;50.664;4.564;2023-04-06T14:53:22;10.60;99.90
20750;DHT22;10535;50.664;4.564;2023-04-06T14:55:47;10.50;99.90
20750;DHT22;10535;50.664;4.564;2023-04-06T14:58:15;10.70;99.90
20750;DHT22;10535;50.664;4.564;2023-04-06T15:00:41;10.80;99.90
20750;DHT22;10535;50.664;4.564;2023-04-06T15:03:06;11.00;99.90
20750;DHT22;10535;50.664;4.564;2023-04-06T15:05:34;11.30;99.90
20750;DHT22;10535;50.664;4.564;2023-04-06T15:07:59;11.40;99.90
20750;DHT22;10535;50.664;4.564;2023-04-06T15:10:25;11.60;99.90
20750;DHT22;10535;50.664;4.564;2023-04-06T15:12:51;11.80;99.90
20750;DHT22;10535;50.664;4.564;2023-04-06T15:15:17;12.00;99.90
20750;DHT22;10535;50.664;4.564;2023-04-06T15:17:44;11.90;99.90
20750;DHT22;10535;50.664;4.564;2023-04-06T15:20:10;11.80;99.90
20750;DHT22;10535;50.664;4.564;2023-04-06T15:22:36;11.90;99.90
20750;DHT22;10535;50.664;4.564;2023-04-06T15:25:02;12.20;99.90
20750;DHT22;10535;50.664;4.564;2023-04-06T15:27:28;12.00;99.90
20750;DHT22;10535;50.664;4.564;2023-04-06T15:29:53;12.00;99.90
20750;DHT22;10535;50.664;4.564;2023-04-06T15:32:20;12.10;99.90
20750;DHT22;10535;50.664;4.564;2023-04-06T15:34:46;12.20;99.90
20750;DHT22;10535;50.664;4.564;2023-04-06T15:37:11;12.30;99.90
20750;DHT22;10535;50.664;4.564;2023-04-06T15:39:37;12.50;99.90
20750;DHT22;10535;50.664;4.564;2023-04-06T15:42:03;12.60;99.90
20750;DHT22;10535;50.664;4.564;2023-04-06T15:44:28;12.60;99.90
20750;DHT22;10535;50.664;4.564;2023-04-06T15:46:54;12.40;99.90
20750;DHT22;10535;50.664;4.564;2023-04-06T15:49:21;12.80;99.90
20750;DHT22;10535;50.664;4.564;2023-04-06T15:51:47;12.90;99.90
20750;DHT22;10535;50.664;4.564;2023-04-06T15:54:13;13.00;99.90